Kenneth, Minnesota
Current Conditions -  °F | °C
As of 4:54 PM on Thursday 18 Dec 2014 (Local Time) from KLYV Reporting Station
Haze Haze  
Wind Chill: 23°   Ceiling: 1300
Heat Index: 28°   Visibility: 5mi
Dew Point: 23°   Wind: 5mph
Humidity: 80%   Direction: 190°S
Pressure: 30.19"   Gusts: NA
Location:  43.75°N, 96.07°W
Report Text: KLYV 182254Z AUTO 19004KT 5SM HZ OVC013 M02/M05 A3019 RMK AO2
Loading
Personal Weather Stations






























Interactive Weather Map New forecast layout! Learn more

10-Day Weather Forecast

Advertisements
Track Severe Weather on mobile